createdAt,value
2017-04-01T00:00:15.817Z,1007.22
2017-04-01T00:00:56.467Z,1007.26
2017-04-01T00:01:37.055Z,1007.24
2017-04-01T00:02:17.659Z,1007.22
2017-04-01T00:02:58.259Z,1007.23
2017-04-01T00:03:38.863Z,1007.19
2017-04-01T00:04:19.461Z,1007.2
2017-04-01T00:05:00.072Z,1007.13
2017-04-01T00:05:40.658Z,1007.18
2017-04-01T00:06:21.277Z,1007.21
2017-04-01T00:07:01.885Z,1007.18
2017-04-01T00:07:42.508Z,1007.18
2017-04-01T00:08:23.100Z,1007.17
2017-04-01T00:09:03.706Z,1007.18
2017-04-01T00:09:44.279Z,1007.16
2017-04-01T00:10:24.886Z,1007.14
2017-04-01T00:11:05.541Z,1007.18
2017-04-01T00:11:46.121Z,1007.16
2017-04-01T00:12:26.713Z,1007.18
2017-04-01T00:13:07.345Z,1007.17
2017-04-01T00:13:47.974Z,1007.17
2017-04-01T00:14:28.593Z,1007.18
2017-04-01T00:15:09.172Z,1007.18
2017-04-01T00:15:49.797Z,1007.13
2017-04-01T00:16:30.406Z,1007.16
2017-04-01T00:17:11.006Z,1007.15
2017-04-01T00:17:51.618Z,1007.16
2017-04-01T00:18:32.207Z,1007.13
2017-04-01T00:19:12.808Z,1007.12
2017-04-01T00:19:53.430Z,1007.08
2017-04-01T00:20:34.023Z,1007.11
2017-04-01T00:21:14.674Z,1007.09
2017-04-01T00:21:55.280Z,1007.12
2017-04-01T00:22:35.852Z,1007.1
2017-04-01T00:23:16.496Z,1007.1
2017-04-01T00:23:57.063Z,1007.06
2017-04-01T00:24:37.689Z,1007.08
2017-04-01T00:25:18.285Z,1007.13
2017-04-01T00:25:58.890Z,1007.08
2017-04-01T00:26:39.483Z,1007.07
2017-04-01T00:27:20.087Z,1007.14
2017-04-01T00:28:00.690Z,1007.1
2017-04-01T00:28:41.280Z,1007.07
2017-04-01T00:29:21.881Z,1007.1
2017-04-01T00:30:02.484Z,1007.03
2017-04-01T00:30:43.084Z,1007.06
2017-04-01T00:31:23.700Z,1007.08
2017-04-01T00:32:04.295Z,1007.05
2017-04-01T00:32:44.907Z,1007.02
2017-04-01T00:33:25.505Z,1007.05
2017-04-01T00:34:06.098Z,1007.05
2017-04-01T00:34:46.668Z,1007.01
2017-04-01T00:35:27.266Z,1007.01
2017-04-01T00:36:07.865Z,1007.02
2017-04-01T00:36:48.476Z,1007.05
2017-04-01T00:37:29.082Z,1006.97
2017-04-01T00:38:09.670Z,1007.02
2017-04-01T00:38:50.288Z,1007
2017-04-01T00:39:30.896Z,1006.98
2017-04-01T00:40:11.514Z,1006.96
2017-04-01T00:40:52.114Z,1007
2017-04-01T00:41:32.827Z,1006.99
2017-04-01T00:42:13.442Z,1006.97
2017-04-01T00:42:54.028Z,1006.97
2017-04-01T00:43:34.637Z,1007
2017-04-01T00:44:15.257Z,1006.96
2017-04-01T00:44:55.899Z,1006.97
2017-04-01T00:45:36.582Z,1006.96
2017-04-01T00:46:17.178Z,1006.96
2017-04-01T00:46:57.808Z,1006.98
2017-04-01T00:47:38.381Z,1007.01
2017-04-01T00:48:18.994Z,1006.98
2017-04-01T00:48:59.600Z,1006.95
2017-04-01T00:49:40.206Z,1006.98
2017-04-01T00:50:20.815Z,1006.91
2017-04-01T00:51:01.429Z,1006.92
2017-04-01T00:51:42.053Z,1006.92
2017-04-01T00:52:22.659Z,1006.91
2017-04-01T00:53:03.290Z,1006.93
2017-04-01T00:53:43.899Z,1006.95
2017-04-01T00:54:24.626Z,1006.92
2017-04-01T00:55:05.228Z,1006.93
2017-04-01T00:55:45.957Z,1006.9
2017-04-01T00:56:26.750Z,1006.9
2017-04-01T00:57:07.326Z,1006.89
2017-04-01T00:57:47.939Z,1006.9
2017-04-01T00:58:28.541Z,1006.86
2017-04-01T00:59:09.122Z,1006.9
2017-04-01T00:59:49.733Z,1006.87
2017-04-01T01:00:30.335Z,1006.88
2017-04-01T01:01:10.926Z,1006.88
2017-04-01T01:01:51.499Z,1006.87
2017-04-01T01:02:32.086Z,1006.86
2017-04-01T01:03:12.689Z,1006.87
2017-04-01T01:03:53.293Z,1006.89
2017-04-01T01:04:33.901Z,1006.85
2017-04-01T01:05:14.526Z,1006.86
2017-04-01T01:05:55.176Z,1006.86
2017-04-01T01:06:35.770Z,1006.84
2017-04-01T01:07:16.369Z,1006.84
2017-04-01T01:07:56.969Z,1006.83
2017-04-01T01:08:37.558Z,1006.85
2017-04-01T01:09:18.163Z,1006.82
2017-04-01T01:09:58.767Z,1006.9
2017-04-01T01:10:39.374Z,1006.87
2017-04-01T01:11:19.979Z,1006.84
2017-04-01T01:12:00.572Z,1006.82
2017-04-01T01:12:41.144Z,1006.84
2017-04-01T01:13:21.712Z,1006.84
2017-04-01T01:14:02.288Z,1006.86
2017-04-01T01:14:42.927Z,1006.85
2017-04-01T01:15:23.499Z,1006.8
2017-04-01T01:16:04.120Z,1006.81
2017-04-01T01:16:44.698Z,1006.82
2017-04-01T01:17:25.327Z,1006.85
2017-04-01T01:18:05.927Z,1006.82
2017-04-01T01:18:46.519Z,1006.78
2017-04-01T01:19:27.103Z,1006.78
2017-04-01T01:20:07.752Z,1006.8
2017-04-01T01:20:48.430Z,1006.81
2017-04-01T01:21:29.041Z,1006.83
2017-04-01T01:22:09.628Z,1006.83
2017-04-01T01:22:50.240Z,1006.82
2017-04-01T01:23:30.849Z,1006.78
2017-04-01T01:24:11.430Z,1006.76
2017-04-01T01:24:52.021Z,1006.79
2017-04-01T01:25:32.623Z,1006.79
2017-04-01T01:26:13.198Z,1006.85
2017-04-01T01:26:53.788Z,1006.79
2017-04-01T01:27:34.350Z,1006.83
2017-04-01T01:28:14.932Z,1006.87
2017-04-01T01:28:55.495Z,1006.83
2017-04-01T01:29:36.080Z,1006.82
2017-04-01T01:30:16.792Z,1006.82
2017-04-01T01:30:57.386Z,1006.83
2017-04-01T01:31:38.000Z,1006.81
2017-04-01T01:32:18.576Z,1006.82
2017-04-01T01:32:59.147Z,1006.81
2017-04-01T01:33:39.721Z,1006.83
2017-04-01T01:34:20.293Z,1006.8
2017-04-01T01:35:00.873Z,1006.81
2017-04-01T01:35:41.443Z,1006.81
2017-04-01T01:36:22.054Z,1006.8
2017-04-01T01:37:02.631Z,1006.82
2017-04-01T01:37:43.229Z,1006.8
2017-04-01T01:38:23.885Z,1006.81
2017-04-01T01:39:04.469Z,1006.79
2017-04-01T01:39:45.059Z,1006.82
2017-04-01T01:40:25.640Z,1006.77
2017-04-01T01:41:06.283Z,1006.79
2017-04-01T01:41:46.882Z,1006.82
2017-04-01T01:42:27.463Z,1006.83
2017-04-01T01:43:08.043Z,1006.79
2017-04-01T01:43:48.627Z,1006.76
2017-04-01T01:44:29.217Z,1006.77
2017-04-01T01:45:09.821Z,1006.79
2017-04-01T01:45:50.447Z,1006.83
2017-04-01T01:46:31.019Z,1006.75
2017-04-01T01:47:11.627Z,1006.76
2017-04-01T01:47:52.198Z,1006.75
2017-04-01T01:48:32.786Z,1006.69
2017-04-01T01:49:13.378Z,1006.72
2017-04-01T01:49:53.962Z,1006.74
2017-04-01T01:50:34.533Z,1006.74
2017-04-01T01:51:15.170Z,1006.73
2017-04-01T01:51:55.781Z,1006.71
2017-04-01T01:52:36.392Z,1006.72
2017-04-01T01:53:16.998Z,1006.66
2017-04-01T01:53:57.599Z,1006.7
2017-04-01T01:54:38.183Z,1006.73
2017-04-01T01:55:18.760Z,1006.69
2017-04-01T01:55:59.363Z,1006.7
2017-04-01T01:56:40.007Z,1006.65
2017-04-01T01:57:20.619Z,1006.66
2017-04-01T01:58:01.212Z,1006.63
2017-04-01T01:58:44.763Z,1006.64
2017-04-01T01:59:25.411Z,1006.63
2017-04-01T02:00:05.989Z,1006.62
2017-04-01T02:00:46.582Z,1006.61
2017-04-01T02:01:27.250Z,1006.58
2017-04-01T02:02:07.922Z,1006.55
2017-04-01T02:02:48.489Z,1006.6
2017-04-01T02:03:29.090Z,1006.57
2017-04-01T02:04:09.696Z,1006.57
2017-04-01T02:04:50.257Z,1006.57
2017-04-01T02:05:30.841Z,1006.54
2017-04-01T02:06:11.399Z,1006.54
2017-04-01T02:06:51.990Z,1006.49
2017-04-01T02:07:32.562Z,1006.53
2017-04-01T02:08:13.171Z,1006.51
2017-04-01T02:08:53.769Z,1006.49
2017-04-01T02:09:34.348Z,1006.48
2017-04-01T02:10:14.936Z,1006.47
2017-04-01T02:10:55.544Z,1006.53
2017-04-01T02:11:36.149Z,1006.49
2017-04-01T02:12:16.762Z,1006.53
2017-04-01T02:12:57.341Z,1006.51
2017-04-01T02:13:37.943Z,1006.49
2017-04-01T02:14:18.519Z,1006.48
2017-04-01T02:14:59.091Z,1006.5
2017-04-01T02:15:39.677Z,1006.51
2017-04-01T02:16:20.270Z,1006.52
2017-04-01T02:17:00.853Z,1006.54
2017-04-01T02:17:41.483Z,1006.54
2017-04-01T02:18:22.038Z,1006.52
2017-04-01T02:19:02.645Z,1006.54
2017-04-01T02:19:43.263Z,1006.52
2017-04-01T02:20:23.815Z,1006.6
2017-04-01T02:21:04.392Z,1006.56
2017-04-01T02:21:44.974Z,1006.55
2017-04-01T02:22:25.545Z,1006.58
2017-04-01T02:23:06.127Z,1006.55
2017-04-01T02:23:46.699Z,1006.57
2017-04-01T02:24:27.278Z,1006.57
2017-04-01T02:25:07.869Z,1006.57
2017-04-01T02:25:48.471Z,1006.56
2017-04-01T02:26:29.042Z,1006.61
2017-04-01T02:27:09.617Z,1006.61
2017-04-01T02:27:50.226Z,1006.61
2017-04-01T02:28:30.786Z,1006.62
2017-04-01T02:29:11.404Z,1006.57
2017-04-01T02:29:51.985Z,1006.65
2017-04-01T02:30:32.551Z,1006.62
2017-04-01T02:31:13.162Z,1006.66
2017-04-01T02:31:53.773Z,1006.71
2017-04-01T02:32:34.383Z,1006.68
2017-04-01T02:33:14.986Z,1006.71
2017-04-01T02:33:55.560Z,1006.7
2017-04-01T02:34:36.140Z,1006.72
2017-04-01T02:35:16.704Z,1006.68
2017-04-01T02:35:57.299Z,1006.74
2017-04-01T02:36:37.912Z,1006.7
2017-04-01T02:37:18.515Z,1006.75
2017-04-01T02:37:59.109Z,1006.75
2017-04-01T02:38:39.752Z,1006.75
2017-04-01T02:39:20.310Z,1006.71
2017-04-01T02:40:00.903Z,1006.74
2017-04-01T02:40:41.520Z,1006.76
2017-04-01T02:41:22.114Z,1006.79
2017-04-01T02:42:02.682Z,1006.77
2017-04-01T02:42:43.267Z,1006.79
2017-04-01T02:43:23.853Z,1006.78
2017-04-01T02:44:04.472Z,1006.77
2017-04-01T02:44:45.068Z,1006.76
2017-04-01T02:45:25.649Z,1006.77
2017-04-01T02:46:06.234Z,1006.75
2017-04-01T02:46:46.819Z,1006.75
2017-04-01T02:47:27.404Z,1006.72
2017-04-01T02:48:07.973Z,1006.72
2017-04-01T02:48:48.560Z,1006.71
2017-04-01T02:49:29.132Z,1006.7
2017-04-01T02:50:09.718Z,1006.7
2017-04-01T02:50:50.288Z,1006.67
2017-04-01T02:51:30.866Z,1006.7
2017-04-01T02:52:11.499Z,1006.63
2017-04-01T02:52:52.161Z,1006.63
2017-04-01T02:53:32.735Z,1006.65
2017-04-01T02:54:13.334Z,1006.64
2017-04-01T02:54:53.902Z,1006.68
2017-04-01T02:55:34.483Z,1006.65
2017-04-01T02:56:15.068Z,1006.68
2017-04-01T02:56:55.646Z,1006.64
2017-04-01T02:57:36.236Z,1006.61
2017-04-01T02:58:16.815Z,1006.63
2017-04-01T02:58:57.399Z,1006.63
2017-04-01T02:59:37.985Z,1006.63
2017-04-01T03:00:18.577Z,1006.62
2017-04-01T03:00:59.160Z,1006.61
2017-04-01T03:01:39.786Z,1006.66
2017-04-01T03:02:20.337Z,1006.65
2017-04-01T03:03:00.925Z,1006.65
2017-04-01T03:03:41.511Z,1006.61
2017-04-01T03:04:22.096Z,1006.66
2017-04-01T03:05:02.698Z,1006.62
2017-04-01T03:05:43.309Z,1006.62
2017-04-01T03:06:23.875Z,1006.64
2017-04-01T03:07:04.461Z,1006.65
2017-04-01T03:07:45.044Z,1006.65
2017-04-01T03:08:25.644Z,1006.69
2017-04-01T03:09:06.265Z,1006.64
2017-04-01T03:09:46.857Z,1006.67
2017-04-01T03:10:27.459Z,1006.67
2017-04-01T03:11:08.034Z,1006.64
2017-04-01T03:11:48.677Z,1006.65
2017-04-01T03:12:29.258Z,1006.66
2017-04-01T03:13:09.835Z,1006.71
2017-04-01T03:13:50.426Z,1006.68
2017-04-01T03:14:30.993Z,1006.71
2017-04-01T03:15:11.571Z,1006.73
2017-04-01T03:15:52.173Z,1006.75
2017-04-01T03:16:32.772Z,1006.71
2017-04-01T03:17:13.386Z,1006.68
2017-04-01T03:17:53.965Z,1006.69
2017-04-01T03:18:34.562Z,1006.66
2017-04-01T03:19:15.146Z,1006.67
2017-04-01T03:19:55.741Z,1006.68
2017-04-01T03:20:36.329Z,1006.66
2017-04-01T03:21:16.894Z,1006.7
2017-04-01T03:21:57.499Z,1006.67
2017-04-01T03:22:38.126Z,1006.69
2017-04-01T03:23:18.698Z,1006.69
2017-04-01T03:23:59.263Z,1006.64
2017-04-01T03:24:39.847Z,1006.68
2017-04-01T03:25:20.443Z,1006.66
2017-04-01T03:26:01.056Z,1006.68
2017-04-01T03:26:41.707Z,1006.67
2017-04-01T03:27:22.407Z,1006.7
2017-04-01T03:28:03.012Z,1006.68
2017-04-01T03:28:43.572Z,1006.7
2017-04-01T03:29:24.151Z,1006.69
2017-04-01T03:30:04.761Z,1006.68
2017-04-01T03:30:45.360Z,1006.66
2017-04-01T03:31:25.966Z,1006.67
2017-04-01T03:32:06.568Z,1006.72
2017-04-01T03:32:47.176Z,1006.67
2017-04-01T03:33:27.825Z,1006.67
2017-04-01T03:34:08.421Z,1006.73
2017-04-01T03:34:48.990Z,1006.65
2017-04-01T03:35:29.594Z,1006.68
2017-04-01T03:36:10.160Z,1006.67
2017-04-01T03:36:50.774Z,1006.64
2017-04-01T03:37:31.368Z,1006.71
2017-04-01T03:38:11.987Z,1006.67
2017-04-01T03:38:52.580Z,1006.67
2017-04-01T03:39:33.169Z,1006.68
2017-04-01T03:40:13.787Z,1006.68
2017-04-01T03:40:54.384Z,1006.68
2017-04-01T03:41:34.999Z,1006.69
2017-04-01T03:42:15.797Z,1006.67
2017-04-01T03:42:56.665Z,1006.7
2017-04-01T03:43:38.190Z,1006.69
2017-04-01T03:44:18.783Z,1006.7
2017-04-01T03:44:59.437Z,1006.66
2017-04-01T03:45:39.998Z,1006.65
2017-04-01T03:46:20.842Z,1006.66
2017-04-01T03:47:01.425Z,1006.64
2017-04-01T03:47:42.008Z,1006.62
2017-04-01T03:48:22.592Z,1006.64
2017-04-01T03:49:03.186Z,1006.62
2017-04-01T03:49:43.764Z,1006.61
2017-04-01T03:50:24.355Z,1006.6
2017-04-01T03:51:04.955Z,1006.6
2017-04-01T03:51:45.551Z,1006.63
2017-04-01T03:52:26.136Z,1006.63
2017-04-01T03:53:06.780Z,1006.65
2017-04-01T03:53:47.319Z,1006.66
2017-04-01T03:54:27.905Z,1006.64
2017-04-01T03:55:08.517Z,1006.63
2017-04-01T03:55:49.102Z,1006.67
2017-04-01T03:56:29.726Z,1006.69
2017-04-01T03:57:10.302Z,1006.67
2017-04-01T03:57:50.915Z,1006.66
2017-04-01T03:58:31.485Z,1006.66
2017-04-01T03:59:12.074Z,1006.62
2017-04-01T03:59:52.659Z,1006.67
2017-04-01T04:00:33.226Z,1006.68
2017-04-01T04:01:13.826Z,1006.68
2017-04-01T04:01:54.429Z,1006.66
2017-04-01T04:02:35.014Z,1006.67
2017-04-01T04:03:15.622Z,1006.69
2017-04-01T04:03:56.199Z,1006.73
2017-04-01T04:04:36.840Z,1006.74
2017-04-01T04:05:17.508Z,1006.77
2017-04-01T04:05:58.083Z,1006.76
2017-04-01T04:06:38.695Z,1006.73
2017-04-01T04:07:19.281Z,1006.76
2017-04-01T04:07:59.869Z,1006.76
2017-04-01T04:08:40.488Z,1006.7
2017-04-01T04:09:21.118Z,1006.73
2017-04-01T04:10:01.685Z,1006.73
2017-04-01T04:10:42.266Z,1006.74
2017-04-01T04:11:22.844Z,1006.7
2017-04-01T04:12:03.447Z,1006.73
2017-04-01T04:12:44.007Z,1006.73
2017-04-01T04:13:24.589Z,1006.73
2017-04-01T04:14:05.196Z,1006.71
2017-04-01T04:14:45.814Z,1006.67
2017-04-01T04:15:26.379Z,1006.7
2017-04-01T04:16:07.052Z,1006.7
2017-04-01T04:16:47.621Z,1006.68
2017-04-01T04:17:28.223Z,1006.67
2017-04-01T04:18:08.805Z,1006.69
2017-04-01T04:18:49.394Z,1006.7
2017-04-01T04:19:30.011Z,1006.69
2017-04-01T04:20:10.668Z,1006.71
2017-04-01T04:20:51.291Z,1006.77
2017-04-01T04:21:31.861Z,1006.74
2017-04-01T04:22:12.479Z,1006.75
2017-04-01T04:22:53.078Z,1006.76
2017-04-01T04:23:33.701Z,1006.75
2017-04-01T04:24:14.309Z,1006.79
2017-04-01T04:24:54.942Z,1006.78
2017-04-01T04:25:35.551Z,1006.79
2017-04-01T04:26:16.135Z,1006.76
2017-04-01T04:26:56.746Z,1006.79
2017-04-01T04:27:37.349Z,1006.79
2017-04-01T04:28:17.953Z,1006.8
2017-04-01T04:28:58.562Z,1006.79
2017-04-01T04:29:39.151Z,1006.81
2017-04-01T04:30:19.755Z,1006.81
2017-04-01T04:31:00.360Z,1006.78
2017-04-01T04:31:40.963Z,1006.8
2017-04-01T04:32:21.620Z,1006.78
2017-04-01T04:33:02.237Z,1006.77
2017-04-01T04:33:42.823Z,1006.79
2017-04-01T04:34:23.418Z,1006.74
2017-04-01T04:35:04.008Z,1006.79
2017-04-01T04:35:44.710Z,1006.74
2017-04-01T04:36:25.328Z,1006.77
2017-04-01T04:37:05.916Z,1006.8
2017-04-01T04:37:46.523Z,1006.77
2017-04-01T04:38:27.148Z,1006.77
2017-04-01T04:39:07.744Z,1006.77
2017-04-01T04:39:48.356Z,1006.77
2017-04-01T04:40:28.940Z,1006.76
2017-04-01T04:41:09.542Z,1006.83
2017-04-01T04:41:50.247Z,1006.77
2017-04-01T04:42:30.862Z,1006.79
2017-04-01T04:43:11.462Z,1006.81
2017-04-01T04:43:52.046Z,1006.81
2017-04-01T04:44:32.654Z,1006.79
2017-04-01T04:45:13.243Z,1006.77
2017-04-01T04:45:53.843Z,1006.8
2017-04-01T04:46:34.455Z,1006.76
2017-04-01T04:47:15.056Z,1006.74
2017-04-01T04:47:55.648Z,1006.75
2017-04-01T04:48:36.292Z,1006.74
2017-04-01T04:49:16.893Z,1006.72
2017-04-01T04:49:57.513Z,1006.77
2017-04-01T04:50:38.119Z,1006.73
2017-04-01T04:51:18.716Z,1006.78
2017-04-01T04:51:59.324Z,1006.8
2017-04-01T04:52:39.910Z,1006.81
2017-04-01T04:53:20.542Z,1006.86
2017-04-01T04:54:01.184Z,1006.8
2017-04-01T04:54:41.790Z,1006.81
2017-04-01T04:55:22.378Z,1006.81
2017-04-01T04:56:02.987Z,1006.81
2017-04-01T04:56:43.600Z,1006.82
2017-04-01T04:57:24.178Z,1006.82
2017-04-01T04:58:04.788Z,1006.84
2017-04-01T04:58:45.373Z,1006.86
2017-04-01T04:59:26.004Z,1006.85
2017-04-01T05:00:06.625Z,1006.9
2017-04-01T05:00:47.225Z,1006.89
2017-04-01T05:01:27.816Z,1006.88
2017-04-01T05:02:08.453Z,1006.91
2017-04-01T05:02:49.063Z,1006.95
2017-04-01T05:03:29.675Z,1006.9
2017-04-01T05:04:10.278Z,1006.91
2017-04-01T05:04:50.878Z,1006.91
2017-04-01T05:05:31.518Z,1006.91
2017-04-01T05:06:12.124Z,1006.9
2017-04-01T05:06:52.741Z,1006.92
2017-04-01T05:07:33.312Z,1006.89
2017-04-01T05:08:13.904Z,1006.88
2017-04-01T05:08:54.496Z,1006.87
2017-04-01T05:09:35.101Z,1006.92
2017-04-01T05:10:15.745Z,1006.93
2017-04-01T05:10:56.352Z,1006.91
2017-04-01T05:11:36.948Z,1006.92
2017-04-01T05:12:17.586Z,1006.93
2017-04-01T05:12:58.222Z,1006.92
2017-04-01T05:13:38.771Z,1006.91
2017-04-01T05:14:19.365Z,1006.92
2017-04-01T05:14:59.966Z,1006.89
2017-04-01T05:15:40.554Z,1006.93
2017-04-01T05:16:21.163Z,1006.95
2017-04-01T05:17:01.774Z,1006.96
2017-04-01T05:17:42.363Z,1006.94
2017-04-01T05:18:22.990Z,1006.96
2017-04-01T05:19:03.611Z,1006.99
2017-04-01T05:19:44.261Z,1006.97
2017-04-01T05:20:24.857Z,1006.99
2017-04-01T05:21:05.454Z,1007.02
2017-04-01T05:21:46.048Z,1007.05
2017-04-01T05:22:26.662Z,1007.03
2017-04-01T05:23:07.257Z,1007.04
2017-04-01T05:23:47.858Z,1007.05
2017-04-01T05:24:28.447Z,1007.04
2017-04-01T05:25:09.059Z,1007.06
2017-04-01T05:25:49.649Z,1007.07
2017-04-01T05:26:30.251Z,1007.09
2017-04-01T05:27:10.860Z,1007.09
2017-04-01T05:27:51.467Z,1007.11
2017-04-01T05:28:32.127Z,1007.06
2017-04-01T05:29:12.717Z,1007.07
2017-04-01T05:29:53.306Z,1007.03
2017-04-01T05:30:33.918Z,1007.05
2017-04-01T05:31:14.530Z,1007.06
2017-04-01T05:31:55.115Z,1007.07
2017-04-01T05:32:35.719Z,1007.06
2017-04-01T05:33:16.324Z,1007.06
2017-04-01T05:33:56.933Z,1007.06
2017-04-01T05:34:37.544Z,1007.04
2017-04-01T05:35:18.155Z,1007.06
2017-04-01T05:35:58.790Z,1007.08
2017-04-01T05:36:39.378Z,1007.05
2017-04-01T05:37:19.977Z,1007.04
2017-04-01T05:38:00.670Z,1007.09
2017-04-01T05:38:41.226Z,1007.04
2017-04-01T05:39:21.842Z,1007.05
2017-04-01T05:40:02.433Z,1007.02
2017-04-01T05:40:43.044Z,1007.05
2017-04-01T05:41:23.673Z,1007.06
2017-04-01T05:42:04.276Z,1007.04
2017-04-01T05:42:44.877Z,1007.05
2017-04-01T05:43:25.460Z,1007.02
2017-04-01T05:44:06.061Z,1007.03
2017-04-01T05:44:46.661Z,1007.04
2017-04-01T05:45:27.279Z,1007.03
2017-04-01T05:46:07.871Z,1007.06
2017-04-01T05:46:48.490Z,1007.04
2017-04-01T05:47:29.102Z,1007.05
2017-04-01T05:48:09.697Z,1007.04
2017-04-01T05:48:50.303Z,1007.07
2017-04-01T05:49:30.913Z,1007.06
2017-04-01T05:50:11.513Z,1007.08
2017-04-01T05:50:52.110Z,1007.08
2017-04-01T05:51:32.837Z,1007.09
2017-04-01T05:52:13.512Z,1007.1
2017-04-01T05:52:54.206Z,1007.04
2017-04-01T05:53:34.795Z,1007.1
2017-04-01T05:54:15.678Z,1007.09
2017-04-01T05:54:56.282Z,1007.09
2017-04-01T05:55:37.430Z,1007.09
2017-04-01T05:56:18.043Z,1007.1
2017-04-01T05:56:58.654Z,1007.09
2017-04-01T05:57:39.294Z,1007.11
2017-04-01T05:58:19.900Z,1007.11
2017-04-01T05:59:00.500Z,1007.11
2017-04-01T05:59:41.121Z,1007.11
2017-04-01T06:00:21.733Z,1007.12
2017-04-01T06:01:02.354Z,1007.07
2017-04-01T06:01:42.940Z,1007.1
2017-04-01T06:02:23.523Z,1007.11
2017-04-01T06:03:04.136Z,1007.12
2017-04-01T06:03:44.708Z,1007.12
2017-04-01T06:04:25.305Z,1007.11
2017-04-01T06:05:05.922Z,1007.14
2017-04-01T06:05:46.554Z,1007.13
2017-04-01T06:06:27.139Z,1007.12
2017-04-01T06:07:07.742Z,1007.14
2017-04-01T06:07:48.372Z,1007.12
2017-04-01T06:08:28.939Z,1007.13
2017-04-01T06:09:09.519Z,1007.12
2017-04-01T06:09:50.129Z,1007.12
2017-04-01T06:10:30.713Z,1007.13
2017-04-01T06:11:11.307Z,1007.14
2017-04-01T06:11:51.896Z,1007.16
2017-04-01T06:12:32.513Z,1007.15
2017-04-01T06:13:13.113Z,1007.13
2017-04-01T06:13:53.719Z,1007.13
2017-04-01T06:14:34.325Z,1007.15
2017-04-01T06:15:14.924Z,1007.17
2017-04-01T06:15:55.563Z,1007.13
2017-04-01T06:16:36.154Z,1007.14
2017-04-01T06:17:17.382Z,1007.17
2017-04-01T06:17:58.156Z,1007.14
2017-04-01T06:18:38.894Z,1007.13
2017-04-01T06:19:19.502Z,1007.13
2017-04-01T06:20:00.130Z,1007.14
2017-04-01T06:20:40.807Z,1007.13
2017-04-01T06:21:21.453Z,1007.16
2017-04-01T06:22:02.050Z,1007.18
2017-04-01T06:22:42.642Z,1007.1
2017-04-01T06:23:23.286Z,1007.15
2017-04-01T06:24:03.878Z,1007.15
2017-04-01T06:24:44.475Z,1007.16
2017-04-01T06:25:25.072Z,1007.16
2017-04-01T06:26:05.678Z,1007.16
2017-04-01T06:26:46.283Z,1007.19
2017-04-01T06:27:26.903Z,1007.15
2017-04-01T06:28:07.494Z,1007.12
2017-04-01T06:28:48.110Z,1007.16
2017-04-01T06:29:28.723Z,1007.13
2017-04-01T06:30:09.324Z,1007.13
2017-04-01T06:30:49.952Z,1007.16
2017-04-01T06:31:30.557Z,1007.12
2017-04-01T06:32:11.160Z,1007.13
2017-04-01T06:32:51.754Z,1007.12
2017-04-01T06:33:32.360Z,1007.12
2017-04-01T06:34:12.961Z,1007.12
2017-04-01T06:34:53.567Z,1007.14
2017-04-01T06:35:34.170Z,1007.12
2017-04-01T06:36:14.756Z,1007.13
2017-04-01T06:36:55.333Z,1007.13
2017-04-01T06:37:35.919Z,1007.14
2017-04-01T06:38:16.558Z,1007.15
2017-04-01T06:38:57.171Z,1007.16
2017-04-01T06:39:37.797Z,1007.12
2017-04-01T06:40:18.434Z,1007.12
2017-04-01T06:40:59.027Z,1007.13
2017-04-01T06:41:39.627Z,1007.24
2017-04-01T06:42:20.259Z,1007.17
2017-04-01T06:43:00.859Z,1007.19
2017-04-01T06:43:41.458Z,1007.23
2017-04-01T06:44:22.061Z,1007.23
2017-04-01T06:45:02.655Z,1007.27
2017-04-01T06:45:43.322Z,1007.29
2017-04-01T06:46:23.931Z,1007.31
2017-04-01T06:47:04.511Z,1007.32
2017-04-01T06:47:45.102Z,1007.34
2017-04-01T06:48:25.688Z,1007.33
2017-04-01T06:49:06.284Z,1007.33
2017-04-01T06:49:46.910Z,1007.36
2017-04-01T06:50:27.487Z,1007.33
2017-04-01T06:51:08.102Z,1007.36
2017-04-01T06:51:48.704Z,1007.36
2017-04-01T06:52:29.319Z,1007.43
2017-04-01T06:53:09.901Z,1007.4
2017-04-01T06:53:50.522Z,1007.45
2017-04-01T06:54:31.127Z,1007.42
2017-04-01T06:55:11.755Z,1007.44
2017-04-01T06:55:52.357Z,1007.46
2017-04-01T06:56:32.970Z,1007.47
2017-04-01T06:57:13.570Z,1007.49
2017-04-01T06:57:54.187Z,1007.51
2017-04-01T06:58:34.819Z,1007.51
2017-04-01T06:59:15.418Z,1007.55
2017-04-01T06:59:56.010Z,1007.56
2017-04-01T07:00:36.633Z,1007.56
2017-04-01T07:01:17.238Z,1007.53
2017-04-01T07:01:57.875Z,1007.52
2017-04-01T07:02:38.490Z,1007.52
2017-04-01T07:03:19.133Z,1007.55
2017-04-01T07:03:59.708Z,1007.53
2017-04-01T07:04:40.301Z,1007.55
2017-04-01T07:05:20.927Z,1007.55
2017-04-01T07:06:01.540Z,1007.59
2017-04-01T07:06:42.154Z,1007.53
2017-04-01T07:07:22.764Z,1007.57
2017-04-01T07:08:03.385Z,1007.59
2017-04-01T07:08:43.990Z,1007.6
2017-04-01T07:09:24.607Z,1007.62
2017-04-01T07:10:05.209Z,1007.6
2017-04-01T07:10:45.813Z,1007.62
2017-04-01T07:11:26.404Z,1007.61
2017-04-01T07:12:07.016Z,1007.58
2017-04-01T07:12:47.604Z,1007.55
2017-04-01T07:13:28.217Z,1007.59
2017-04-01T07:14:08.803Z,1007.56
2017-04-01T07:14:49.410Z,1007.58
2017-04-01T07:15:30.020Z,1007.6
2017-04-01T07:16:10.640Z,1007.58
2017-04-01T07:16:51.256Z,1007.62
2017-04-01T07:17:31.876Z,1007.62
2017-04-01T07:18:12.475Z,1007.61
2017-04-01T07:18:53.079Z,1007.6
2017-04-01T07:19:33.704Z,1007.64
2017-04-01T07:20:14.315Z,1007.68
2017-04-01T07:20:54.906Z,1007.69
2017-04-01T07:21:35.511Z,1007.68
2017-04-01T07:22:16.127Z,1007.68
2017-04-01T07:22:56.740Z,1007.71
2017-04-01T07:23:37.356Z,1007.73
2017-04-01T07:24:17.965Z,1007.73
2017-04-01T07:24:58.603Z,1007.71
2017-04-01T07:25:39.200Z,1007.73
2017-04-01T07:26:19.823Z,1007.74
2017-04-01T07:27:00.454Z,1007.71
2017-04-01T07:27:41.145Z,1007.75
2017-04-01T07:28:21.773Z,1007.73
2017-04-01T07:29:02.480Z,1007.73
2017-04-01T07:29:43.154Z,1007.68
2017-04-01T07:30:23.856Z,1007.74
2017-04-01T07:31:04.550Z,1007.74
2017-04-01T07:31:45.175Z,1007.69
2017-04-01T07:32:25.996Z,1007.73
2017-04-01T07:33:06.764Z,1007.74
2017-04-01T07:33:47.490Z,1007.7
2017-04-01T07:34:28.241Z,1007.73
2017-04-01T07:35:08.892Z,1007.75
2017-04-01T07:35:49.553Z,1007.74
2017-04-01T07:36:30.192Z,1007.77
2017-04-01T07:37:10.802Z,1007.74
2017-04-01T07:37:51.428Z,1007.76
2017-04-01T07:38:32.078Z,1007.74
2017-04-01T07:39:12.672Z,1007.78
2017-04-01T07:39:53.293Z,1007.78
2017-04-01T07:40:33.873Z,1007.77
2017-04-01T07:41:14.469Z,1007.8
2017-04-01T07:41:55.075Z,1007.78
2017-04-01T07:42:35.709Z,1007.81
2017-04-01T07:43:16.340Z,1007.8
2017-04-01T07:43:56.938Z,1007.77
2017-04-01T07:44:37.543Z,1007.79
2017-04-01T07:45:18.178Z,1007.81
2017-04-01T07:45:58.789Z,1007.81
2017-04-01T07:46:39.415Z,1007.84
2017-04-01T07:47:20.044Z,1007.83
2017-04-01T07:48:00.655Z,1007.83
2017-04-01T07:48:41.256Z,1007.82
2017-04-01T07:49:21.863Z,1007.81
2017-04-01T07:50:02.482Z,1007.78
2017-04-01T07:50:43.114Z,1007.82
2017-04-01T07:51:23.708Z,1007.77
2017-04-01T07:52:04.322Z,1007.8
2017-04-01T07:52:44.948Z,1007.8
2017-04-01T07:53:25.553Z,1007.77
2017-04-01T07:54:06.188Z,1007.75
2017-04-01T07:54:46.802Z,1007.72
2017-04-01T07:55:27.409Z,1007.7
2017-04-01T07:56:08.040Z,1007.73
2017-04-01T07:56:48.649Z,1007.69
2017-04-01T07:57:29.271Z,1007.71
2017-04-01T07:58:09.906Z,1007.71
2017-04-01T07:58:50.523Z,1007.71
2017-04-01T07:59:31.120Z,1007.74
2017-04-01T08:00:11.746Z,1007.74
2017-04-01T08:00:52.370Z,1007.73
2017-04-01T08:01:33.247Z,1007.75
2017-04-01T08:02:14.821Z,1007.74
2017-04-01T08:02:55.415Z,1007.74
2017-04-01T08:03:36.025Z,1007.75
2017-04-01T08:04:26.181Z,1007.79
2017-04-01T08:05:11.681Z,1007.73
2017-04-01T08:05:52.290Z,1007.81
2017-04-01T08:06:32.991Z,1007.78
2017-04-01T08:07:13.651Z,1007.77
2017-04-01T08:07:54.512Z,1007.76
2017-04-01T08:08:35.666Z,1007.75
2017-04-01T08:09:17.825Z,1007.7
2017-04-01T08:10:00.627Z,1007.75
2017-04-01T08:10:43.923Z,1007.76
2017-04-01T08:11:32.892Z,1007.76
2017-04-01T08:12:14.420Z,1007.78
2017-04-01T08:12:55.034Z,1007.8
2017-04-01T08:13:37.386Z,1007.78